sensor_id;sensor_type;location;lat;lon;timestamp;P1;durP1;ratioP1;P2;durP2;ratioP2
25938;SDS011;13739;51.172;4.466;2023-03-23T00:01:25;5.07;;;3.08;;
25938;SDS011;13739;51.172;4.466;2023-03-23T00:03:55;4.68;;;2.65;;
25938;SDS011;13739;51.172;4.466;2023-03-23T00:06:25;8.35;;;2.90;;
25938;SDS011;13739;51.172;4.466;2023-03-23T00:08:53;8.77;;;3.10;;
25938;SDS011;13739;51.172;4.466;2023-03-23T00:11:24;10.27;;;3.47;;
25938;SDS011;13739;51.172;4.466;2023-03-23T00:13:53;9.77;;;3.30;;
25938;SDS011;13739;51.172;4.466;2023-03-23T00:16:23;7.30;;;3.00;;
25938;SDS011;13739;51.172;4.466;2023-03-23T00:19:03;5.32;;;3.30;;
25938;SDS011;13739;51.172;4.466;2023-03-23T00:21:31;5.22;;;3.45;;
25938;SDS011;13739;51.172;4.466;2023-03-23T00:24:00;4.05;;;2.42;;
25938;SDS011;13739;51.172;4.466;2023-03-23T00:26:29;7.68;;;3.38;;
25938;SDS011;13739;51.172;4.466;2023-03-23T00:28:58;6.47;;;3.42;;
25938;SDS011;13739;51.172;4.466;2023-03-23T00:31:25;6.93;;;3.20;;
25938;SDS011;13739;51.172;4.466;2023-03-23T00:33:56;6.53;;;3.63;;
25938;SDS011;13739;51.172;4.466;2023-03-23T00:36:23;5.25;;;3.30;;
25938;SDS011;13739;51.172;4.466;2023-03-23T00:38:49;8.90;;;3.40;;
25938;SDS011;13739;51.172;4.466;2023-03-23T00:41:15;6.07;;;3.30;;
25938;SDS011;13739;51.172;4.466;2023-03-23T00:43:41;7.88;;;3.50;;
25938;SDS011;13739;51.172;4.466;2023-03-23T00:46:06;5.25;;;3.25;;
25938;SDS011;13739;51.172;4.466;2023-03-23T00:48:34;5.38;;;3.20;;
25938;SDS011;13739;51.172;4.466;2023-03-23T00:51:02;6.55;;;3.40;;
25938;SDS011;13739;51.172;4.466;2023-03-23T00:53:37;6.63;;;3.70;;
25938;SDS011;13739;51.172;4.466;2023-03-23T00:56:03;6.28;;;3.60;;
25938;SDS011;13739;51.172;4.466;2023-03-23T00:58:29;5.15;;;2.95;;
25938;SDS011;13739;51.172;4.466;2023-03-23T01:00:55;4.85;;;3.22;;
25938;SDS011;13739;51.172;4.466;2023-03-23T01:03:21;6.88;;;3.60;;
25938;SDS011;13739;51.172;4.466;2023-03-23T01:05:50;6.10;;;3.47;;
25938;SDS011;13739;51.172;4.466;2023-03-23T01:08:17;5.47;;;3.50;;
25938;SDS011;13739;51.172;4.466;2023-03-23T01:10:44;10.77;;;4.07;;
25938;SDS011;13739;51.172;4.466;2023-03-23T01:13:10;6.25;;;3.80;;
25938;SDS011;13739;51.172;4.466;2023-03-23T01:15:37;5.25;;;3.30;;
25938;SDS011;13739;51.172;4.466;2023-03-23T01:18:03;7.65;;;3.25;;
25938;SDS011;13739;51.172;4.466;2023-03-23T01:20:29;8.00;;;3.65;;
25938;SDS011;13739;51.172;4.466;2023-03-23T01:22:56;8.73;;;3.60;;
25938;SDS011;13739;51.172;4.466;2023-03-23T01:25:32;4.88;;;3.13;;
25938;SDS011;13739;51.172;4.466;2023-03-23T01:28:01;8.93;;;3.30;;
25938;SDS011;13739;51.172;4.466;2023-03-23T01:30:27;7.82;;;2.80;;
25938;SDS011;13739;51.172;4.466;2023-03-23T01:32:54;9.20;;;3.20;;
25938;SDS011;13739;51.172;4.466;2023-03-23T01:35:20;5.80;;;2.75;;
25938;SDS011;13739;51.172;4.466;2023-03-23T01:37:46;5.13;;;3.08;;
25938;SDS011;13739;51.172;4.466;2023-03-23T01:40:13;4.80;;;2.45;;
25938;SDS011;13739;51.172;4.466;2023-03-23T01:42:39;4.60;;;2.90;;
25938;SDS011;13739;51.172;4.466;2023-03-23T01:47:54;4.18;;;2.80;;
25938;SDS011;13739;51.172;4.466;2023-03-23T01:50:24;5.47;;;2.60;;
25938;SDS011;13739;51.172;4.466;2023-03-23T01:52:52;5.57;;;3.28;;
25938;SDS011;13739;51.172;4.466;2023-03-23T01:55:20;5.90;;;3.05;;
25938;SDS011;13739;51.172;4.466;2023-03-23T01:57:47;6.95;;;2.60;;
25938;SDS011;13739;51.172;4.466;2023-03-23T02:00:14;6.03;;;2.67;;
25938;SDS011;13739;51.172;4.466;2023-03-23T02:02:43;4.38;;;2.83;;
25938;SDS011;13739;51.172;4.466;2023-03-23T02:05:19;4.45;;;2.83;;
25938;SDS011;13739;51.172;4.466;2023-03-23T02:07:56;5.18;;;2.85;;
25938;SDS011;13739;51.172;4.466;2023-03-23T02:10:28;7.35;;;2.90;;
25938;SDS011;13739;51.172;4.466;2023-03-23T02:12:56;5.70;;;2.88;;
25938;SDS011;13739;51.172;4.466;2023-03-23T02:15:24;4.03;;;2.78;;
25938;SDS011;13739;51.172;4.466;2023-03-23T02:18:15;3.67;;;2.55;;
25938;SDS011;13739;51.172;4.466;2023-03-23T02:37:28;6.20;;;2.42;;
25938;SDS011;13739;51.172;4.466;2023-03-23T02:39:58;6.30;;;2.60;;
25938;SDS011;13739;51.172;4.466;2023-03-23T02:42:38;5.25;;;2.13;;
25938;SDS011;13739;51.172;4.466;2023-03-23T02:45:08;4.20;;;2.38;;
25938;SDS011;13739;51.172;4.466;2023-03-23T02:47:37;7.90;;;2.05;;
25938;SDS011;13739;51.172;4.466;2023-03-23T02:50:05;6.28;;;1.92;;
25938;SDS011;13739;51.172;4.466;2023-03-23T02:52:34;7.38;;;2.50;;
25938;SDS011;13739;51.172;4.466;2023-03-23T02:55:03;3.42;;;1.77;;
25938;SDS011;13739;51.172;4.466;2023-03-23T02:57:29;7.40;;;1.77;;
25938;SDS011;13739;51.172;4.466;2023-03-23T02:59:56;5.28;;;1.65;;
25938;SDS011;13739;51.172;4.466;2023-03-23T03:13:30;2.45;;;1.25;;
25938;SDS011;13739;51.172;4.466;2023-03-23T03:18:30;5.70;;;1.23;;
25938;SDS011;13739;51.172;4.466;2023-03-23T03:21:10;4.15;;;1.60;;
25938;SDS011;13739;51.172;4.466;2023-03-23T03:23:39;7.47;;;1.35;;
25938;SDS011;13739;51.172;4.466;2023-03-23T03:26:09;8.65;;;2.00;;
25938;SDS011;13739;51.172;4.466;2023-03-23T03:28:37;6.03;;;1.67;;
25938;SDS011;13739;51.172;4.466;2023-03-23T03:31:03;8.18;;;1.52;;
25938;SDS011;13739;51.172;4.466;2023-03-23T03:33:31;5.78;;;1.70;;
25938;SDS011;13739;51.172;4.466;2023-03-23T03:36:02;5.97;;;1.40;;
25938;SDS011;13739;51.172;4.466;2023-03-23T03:38:40;4.25;;;1.25;;
25938;SDS011;13739;51.172;4.466;2023-03-23T03:41:09;5.65;;;1.40;;
25938;SDS011;13739;51.172;4.466;2023-03-23T03:43:35;6.65;;;1.30;;
25938;SDS011;13739;51.172;4.466;2023-03-23T03:46:01;4.15;;;1.10;;
25938;SDS011;13739;51.172;4.466;2023-03-23T03:48:27;4.97;;;1.30;;
25938;SDS011;13739;51.172;4.466;2023-03-23T03:50:53;4.30;;;1.25;;
25938;SDS011;13739;51.172;4.466;2023-03-23T03:53:21;6.03;;;1.50;;
25938;SDS011;13739;51.172;4.466;2023-03-23T03:55:48;6.97;;;1.33;;
25938;SDS011;13739;51.172;4.466;2023-03-23T03:58:14;4.85;;;1.20;;
25938;SDS011;13739;51.172;4.466;2023-03-23T04:00:41;4.93;;;1.40;;
25938;SDS011;13739;51.172;4.466;2023-03-23T04:03:07;3.40;;;1.30;;
25938;SDS011;13739;51.172;4.466;2023-03-23T04:05:34;4.95;;;1.20;;
25938;SDS011;13739;51.172;4.466;2023-03-23T04:08:02;3.25;;;1.20;;
25938;SDS011;13739;51.172;4.466;2023-03-23T04:10:28;7.35;;;1.30;;
25938;SDS011;13739;51.172;4.466;2023-03-23T04:12:55;5.95;;;1.40;;
25938;SDS011;13739;51.172;4.466;2023-03-23T04:15:21;5.43;;;1.35;;
25938;SDS011;13739;51.172;4.466;2023-03-23T04:17:47;5.60;;;1.20;;
25938;SDS011;13739;51.172;4.466;2023-03-23T04:20:13;8.52;;;1.30;;
25938;SDS011;13739;51.172;4.466;2023-03-23T04:22:45;5.65;;;1.48;;
25938;SDS011;13739;51.172;4.466;2023-03-23T04:25:14;4.13;;;1.13;;
25938;SDS011;13739;51.172;4.466;2023-03-23T04:27:42;6.40;;;1.30;;
25938;SDS011;13739;51.172;4.466;2023-03-23T04:30:11;3.33;;;1.10;;
25938;SDS011;13739;51.172;4.466;2023-03-23T04:32:38;3.03;;;1.40;;
25938;SDS011;13739;51.172;4.466;2023-03-23T04:35:09;2.97;;;1.38;;
25938;SDS011;13739;51.172;4.466;2023-03-23T04:37:36;6.00;;;1.30;;
25938;SDS011;13739;51.172;4.466;2023-03-23T04:40:02;5.82;;;1.50;;
25938;SDS011;13739;51.172;4.466;2023-03-23T04:42:35;5.85;;;1.52;;
25938;SDS011;13739;51.172;4.466;2023-03-23T04:45:02;7.90;;;1.67;;
25938;SDS011;13739;51.172;4.466;2023-03-23T04:47:31;3.42;;;1.35;;
25938;SDS011;13739;51.172;4.466;2023-03-23T04:49:59;5.57;;;1.40;;
25938;SDS011;13739;51.172;4.466;2023-03-23T04:52:26;4.05;;;1.30;;
25938;SDS011;13739;51.172;4.466;2023-03-23T04:54:53;9.60;;;1.65;;
25938;SDS011;13739;51.172;4.466;2023-03-23T04:57:21;8.10;;;1.42;;
25938;SDS011;13739;51.172;4.466;2023-03-23T04:59:47;8.57;;;1.35;;
25938;SDS011;13739;51.172;4.466;2023-03-23T05:02:12;8.07;;;1.40;;
25938;SDS011;13739;51.172;4.466;2023-03-23T05:04:39;9.25;;;1.55;;
25938;SDS011;13739;51.172;4.466;2023-03-23T05:07:06;5.75;;;1.30;;
25938;SDS011;13739;51.172;4.466;2023-03-23T05:09:32;9.40;;;2.05;;
25938;SDS011;13739;51.172;4.466;2023-03-23T05:12:03;8.55;;;2.28;;
25938;SDS011;13739;51.172;4.466;2023-03-23T05:14:32;11.75;;;1.70;;
25938;SDS011;13739;51.172;4.466;2023-03-23T05:16:58;8.57;;;1.65;;
25938;SDS011;13739;51.172;4.466;2023-03-23T05:19:23;10.15;;;1.52;;
25938;SDS011;13739;51.172;4.466;2023-03-23T05:21:49;7.57;;;1.42;;
25938;SDS011;13739;51.172;4.466;2023-03-23T05:24:15;6.20;;;1.30;;
25938;SDS011;13739;51.172;4.466;2023-03-23T05:26:40;9.18;;;1.63;;
25938;SDS011;13739;51.172;4.466;2023-03-23T05:29:06;10.15;;;2.22;;
25938;SDS011;13739;51.172;4.466;2023-03-23T05:31:32;7.93;;;1.40;;
25938;SDS011;13739;51.172;4.466;2023-03-23T05:33:57;7.15;;;1.17;;
25938;SDS011;13739;51.172;4.466;2023-03-23T05:36:23;10.88;;;1.52;;
25938;SDS011;13739;51.172;4.466;2023-03-23T05:38:52;7.10;;;1.20;;
25938;SDS011;13739;51.172;4.466;2023-03-23T05:41:18;4.85;;;1.15;;
25938;SDS011;13739;51.172;4.466;2023-03-23T05:43:43;4.18;;;1.33;;
25938;SDS011;13739;51.172;4.466;2023-03-23T05:46:09;7.47;;;1.50;;
25938;SDS011;13739;51.172;4.466;2023-03-23T05:48:35;9.73;;;1.67;;
25938;SDS011;13739;51.172;4.466;2023-03-23T05:51:01;3.88;;;1.30;;
25938;SDS011;13739;51.172;4.466;2023-03-23T05:53:27;7.32;;;1.40;;
25938;SDS011;13739;51.172;4.466;2023-03-23T05:55:59;8.13;;;1.48;;
25938;SDS011;13739;51.172;4.466;2023-03-23T05:58:25;6.57;;;1.38;;
25938;SDS011;13739;51.172;4.466;2023-03-23T06:00:51;6.78;;;1.90;;
25938;SDS011;13739;51.172;4.466;2023-03-23T06:03:17;4.85;;;1.67;;
25938;SDS011;13739;51.172;4.466;2023-03-23T06:05:43;4.13;;;1.60;;
25938;SDS011;13739;51.172;4.466;2023-03-23T06:08:10;7.22;;;1.60;;
25938;SDS011;13739;51.172;4.466;2023-03-23T06:10:36;9.60;;;1.65;;
25938;SDS011;13739;51.172;4.466;2023-03-23T06:13:03;5.43;;;1.60;;
25938;SDS011;13739;51.172;4.466;2023-03-23T06:15:29;7.78;;;1.67;;
25938;SDS011;13739;51.172;4.466;2023-03-23T06:18:02;7.90;;;1.70;;
25938;SDS011;13739;51.172;4.466;2023-03-23T06:20:28;5.05;;;1.60;;
25938;SDS011;13739;51.172;4.466;2023-03-23T06:22:55;9.45;;;1.88;;
25938;SDS011;13739;51.172;4.466;2023-03-23T06:25:21;8.32;;;1.80;;
25938;SDS011;13739;51.172;4.466;2023-03-23T06:27:48;7.00;;;1.50;;
25938;SDS011;13739;51.172;4.466;2023-03-23T06:30:14;6.35;;;1.90;;
25938;SDS011;13739;51.172;4.466;2023-03-23T06:32:40;6.05;;;1.30;;
25938;SDS011;13739;51.172;4.466;2023-03-23T06:35:08;5.22;;;1.90;;
25938;SDS011;13739;51.172;4.466;2023-03-23T06:37:36;7.30;;;1.83;;
25938;SDS011;13739;51.172;4.466;2023-03-23T06:40:02;8.10;;;1.85;;
25938;SDS011;13739;51.172;4.466;2023-03-23T06:42:31;8.18;;;1.55;;
25938;SDS011;13739;51.172;4.466;2023-03-23T06:44:57;3.95;;;1.45;;
25938;SDS011;13739;51.172;4.466;2023-03-23T06:47:25;4.40;;;1.23;;
25938;SDS011;13739;51.172;4.466;2023-03-23T06:49:52;6.00;;;1.50;;
25938;SDS011;13739;51.172;4.466;2023-03-23T06:52:17;6.47;;;1.38;;
25938;SDS011;13739;51.172;4.466;2023-03-23T06:54:43;4.43;;;1.05;;
25938;SDS011;13739;51.172;4.466;2023-03-23T06:57:09;2.30;;;1.13;;
25938;SDS011;13739;51.172;4.466;2023-03-23T06:59:35;3.17;;;1.35;;
25938;SDS011;13739;51.172;4.466;2023-03-23T07:02:00;9.15;;;1.40;;
25938;SDS011;13739;51.172;4.466;2023-03-23T07:04:26;3.80;;;0.90;;
25938;SDS011;13739;51.172;4.466;2023-03-23T07:06:52;6.07;;;1.20;;
25938;SDS011;13739;51.172;4.466;2023-03-23T07:09:18;2.88;;;0.93;;
25938;SDS011;13739;51.172;4.466;2023-03-23T07:11:43;2.55;;;1.20;;
25938;SDS011;13739;51.172;4.466;2023-03-23T07:14:12;10.63;;;2.38;;
25938;SDS011;13739;51.172;4.466;2023-03-23T07:16:38;4.45;;;1.10;;
25938;SDS011;13739;51.172;4.466;2023-03-23T07:19:03;3.47;;;0.93;;
25938;SDS011;13739;51.172;4.466;2023-03-23T07:21:29;5.68;;;1.00;;
25938;SDS011;13739;51.172;4.466;2023-03-23T07:23:55;4.05;;;1.10;;
25938;SDS011;13739;51.172;4.466;2023-03-23T07:26:21;3.63;;;1.10;;
25938;SDS011;13739;51.172;4.466;2023-03-23T07:28:47;7.07;;;1.27;;
25938;SDS011;13739;51.172;4.466;2023-03-23T07:31:12;2.97;;;1.10;;
25938;SDS011;13739;51.172;4.466;2023-03-23T07:33:38;11.35;;;1.70;;
25938;SDS011;13739;51.172;4.466;2023-03-23T07:36:04;8.88;;;1.10;;
25938;SDS011;13739;51.172;4.466;2023-03-23T07:38:31;2.63;;;0.95;;
25938;SDS011;13739;51.172;4.466;2023-03-23T07:40:58;4.85;;;1.20;;
25938;SDS011;13739;51.172;4.466;2023-03-23T07:43:23;3.22;;;1.05;;
25938;SDS011;13739;51.172;4.466;2023-03-23T07:45:49;6.72;;;1.27;;
25938;SDS011;13739;51.172;4.466;2023-03-23T07:48:16;2.72;;;0.90;;
25938;SDS011;13739;51.172;4.466;2023-03-23T07:50:42;4.53;;;0.93;;
25938;SDS011;13739;51.172;4.466;2023-03-23T07:53:08;1.77;;;0.70;;
25938;SDS011;13739;51.172;4.466;2023-03-23T07:55:34;2.33;;;0.73;;
25938;SDS011;13739;51.172;4.466;2023-03-23T07:58:00;1.60;;;0.80;;
25938;SDS011;13739;51.172;4.466;2023-03-23T08:00:25;4.07;;;0.70;;
25938;SDS011;13739;51.172;4.466;2023-03-23T08:02:53;14.38;;;1.10;;
25938;SDS011;13739;51.172;4.466;2023-03-23T08:05:20;4.18;;;0.95;;
25938;SDS011;13739;51.172;4.466;2023-03-23T08:07:47;5.53;;;0.80;;
25938;SDS011;13739;51.172;4.466;2023-03-23T08:10:13;5.43;;;0.90;;
25938;SDS011;13739;51.172;4.466;2023-03-23T08:12:42;2.92;;;0.80;;
25938;SDS011;13739;51.172;4.466;2023-03-23T08:15:09;2.58;;;1.00;;
25938;SDS011;13739;51.172;4.466;2023-03-23T08:17:40;2.90;;;1.13;;
25938;SDS011;13739;51.172;4.466;2023-03-23T08:20:06;1.73;;;0.90;;
25938;SDS011;13739;51.172;4.466;2023-03-23T08:22:38;4.90;;;1.05;;
25938;SDS011;13739;51.172;4.466;2023-03-23T08:25:05;7.07;;;1.13;;
25938;SDS011;13739;51.172;4.466;2023-03-23T08:27:34;3.33;;;0.70;;
25938;SDS011;13739;51.172;4.466;2023-03-23T08:29:59;4.18;;;0.90;;
25938;SDS011;13739;51.172;4.466;2023-03-23T08:32:25;6.20;;;0.95;;
25938;SDS011;13739;51.172;4.466;2023-03-23T08:34:51;5.88;;;1.77;;
25938;SDS011;13739;51.172;4.466;2023-03-23T08:37:18;3.00;;;1.05;;
25938;SDS011;13739;51.172;4.466;2023-03-23T08:39:43;2.83;;;0.85;;
25938;SDS011;13739;51.172;4.466;2023-03-23T08:42:09;7.75;;;0.95;;
25938;SDS011;13739;51.172;4.466;2023-03-23T08:44:35;9.18;;;1.00;;
25938;SDS011;13739;51.172;4.466;2023-03-23T08:47:02;3.03;;;0.80;;
25938;SDS011;13739;51.172;4.466;2023-03-23T08:49:30;7.47;;;1.20;;
25938;SDS011;13739;51.172;4.466;2023-03-23T08:51:57;2.60;;;0.98;;
25938;SDS011;13739;51.172;4.466;2023-03-23T08:54:23;1.25;;;0.85;;
25938;SDS011;13739;51.172;4.466;2023-03-23T08:56:49;4.57;;;1.00;;
25938;SDS011;13739;51.172;4.466;2023-03-23T08:59:15;3.95;;;1.63;;
25938;SDS011;13739;51.172;4.466;2023-03-23T09:01:41;7.90;;;1.23;;
25938;SDS011;13739;51.172;4.466;2023-03-23T09:04:07;7.57;;;1.15;;
25938;SDS011;13739;51.172;4.466;2023-03-23T09:06:34;4.18;;;1.23;;
25938;SDS011;13739;51.172;4.466;2023-03-23T09:09:01;7.30;;;1.52;;
25938;SDS011;13739;51.172;4.466;2023-03-23T09:11:31;4.07;;;1.45;;
25938;SDS011;13739;51.172;4.466;2023-03-23T09:13:58;3.90;;;1.05;;
25938;SDS011;13739;51.172;4.466;2023-03-23T09:16:24;7.15;;;2.20;;
25938;SDS011;13739;51.172;4.466;2023-03-23T09:18:50;5.03;;;1.35;;
25938;SDS011;13739;51.172;4.466;2023-03-23T09:21:16;6.53;;;1.50;;
25938;SDS011;13739;51.172;4.466;2023-03-23T09:23:42;7.75;;;1.27;;
25938;SDS011;13739;51.172;4.466;2023-03-23T09:26:09;4.55;;;1.40;;
25938;SDS011;13739;51.172;4.466;2023-03-23T09:28:35;6.63;;;1.25;;
25938;SDS011;13739;51.172;4.466;2023-03-23T09:31:01;5.65;;;1.73;;
25938;SDS011;13739;51.172;4.466;2023-03-23T09:33:26;4.85;;;1.00;;
25938;SDS011;13739;51.172;4.466;2023-03-23T09:35:57;8.43;;;1.45;;
25938;SDS011;13739;51.172;4.466;2023-03-23T09:38:23;7.05;;;1.15;;
25938;SDS011;13739;51.172;4.466;2023-03-23T09:49:13;4.40;;;1.60;;
25938;SDS011;13739;51.172;4.466;2023-03-23T09:52:08;8.27;;;1.00;;
25938;SDS011;13739;51.172;4.466;2023-03-23T09:54:40;3.55;;;1.02;;
25938;SDS011;13739;51.172;4.466;2023-03-23T09:57:14;9.27;;;1.00;;
25938;SDS011;13739;51.172;4.466;2023-03-23T10:00:13;4.30;;;0.90;;
25938;SDS011;13739;51.172;4.466;2023-03-23T10:02:48;6.85;;;1.40;;
25938;SDS011;13739;51.172;4.466;2023-03-23T10:08:16;5.60;;;1.23;;
25938;SDS011;13739;51.172;4.466;2023-03-23T10:11:03;5.70;;;1.17;;
25938;SDS011;13739;51.172;4.466;2023-03-23T10:18:56;5.47;;;1.50;;
25938;SDS011;13739;51.172;4.466;2023-03-23T10:21:24;5.47;;;1.40;;
25938;SDS011;13739;51.172;4.466;2023-03-23T10:31:52;3.45;;;1.60;;
25938;SDS011;13739;51.172;4.466;2023-03-23T10:39:27;4.78;;;1.63;;
25938;SDS011;13739;51.172;4.466;2023-03-23T10:41:59;5.45;;;1.80;;
25938;SDS011;13739;51.172;4.466;2023-03-23T10:44:32;3.45;;;1.60;;
25938;SDS011;13739;51.172;4.466;2023-03-23T10:47:07;6.05;;;1.30;;
25938;SDS011;13739;51.172;4.466;2023-03-23T10:49:39;4.38;;;1.33;;
25938;SDS011;13739;51.172;4.466;2023-03-23T10:54:50;8.63;;;1.30;;
25938;SDS011;13739;51.172;4.466;2023-03-23T10:57:24;6.30;;;1.33;;
25938;SDS011;13739;51.172;4.466;2023-03-23T11:02:45;7.53;;;1.55;;
25938;SDS011;13739;51.172;4.466;2023-03-23T11:05:19;4.70;;;1.70;;
25938;SDS011;13739;51.172;4.466;2023-03-23T11:07:51;7.03;;;1.40;;
25938;SDS011;13739;51.172;4.466;2023-03-23T11:10:24;8.40;;;1.50;;
25938;SDS011;13739;51.172;4.466;2023-03-23T11:13:00;6.55;;;1.83;;
25938;SDS011;13739;51.172;4.466;2023-03-23T11:18:02;9.43;;;1.52;;
25938;SDS011;13739;51.172;4.466;2023-03-23T11:20:32;5.07;;;1.73;;
25938;SDS011;13739;51.172;4.466;2023-03-23T11:23:07;6.03;;;2.03;;
25938;SDS011;13739;51.172;4.466;2023-03-23T11:28:48;6.47;;;1.60;;
25938;SDS011;13739;51.172;4.466;2023-03-23T11:37:05;6.50;;;2.13;;
25938;SDS011;13739;51.172;4.466;2023-03-23T11:51:00;10.05;;;2.10;;
25938;SDS011;13739;51.172;4.466;2023-03-23T11:56:25;5.30;;;1.58;;
25938;SDS011;13739;51.172;4.466;2023-03-23T11:58:57;8.35;;;2.05;;
25938;SDS011;13739;51.172;4.466;2023-03-23T12:17:49;5.60;;;1.48;;
25938;SDS011;13739;51.172;4.466;2023-03-23T12:23:42;7.93;;;1.63;;
25938;SDS011;13739;51.172;4.466;2023-03-23T12:26:22;6.78;;;1.70;;
25938;SDS011;13739;51.172;4.466;2023-03-23T12:34:14;8.80;;;1.73;;
25938;SDS011;13739;51.172;4.466;2023-03-23T12:37:08;12.07;;;2.33;;
25938;SDS011;13739;51.172;4.466;2023-03-23T12:42:38;5.40;;;1.50;;
25938;SDS011;13739;51.172;4.466;2023-03-23T12:48:10;4.68;;;1.40;;
25938;SDS011;13739;51.172;4.466;2023-03-23T12:51:08;3.80;;;1.20;;
25938;SDS011;13739;51.172;4.466;2023-03-23T12:56:31;7.07;;;1.58;;
25938;SDS011;13739;51.172;4.466;2023-03-23T12:59:10;5.43;;;1.65;;
25938;SDS011;13739;51.172;4.466;2023-03-23T13:04:17;5.22;;;1.45;;
25938;SDS011;13739;51.172;4.466;2023-03-23T13:06:47;6.65;;;1.42;;
25938;SDS011;13739;51.172;4.466;2023-03-23T13:09:19;6.05;;;1.50;;
25938;SDS011;13739;51.172;4.466;2023-03-23T13:12:04;6.57;;;1.42;;
25938;SDS011;13739;51.172;4.466;2023-03-23T13:17:08;8.55;;;1.20;;
25938;SDS011;13739;51.172;4.466;2023-03-23T13:28:32;8.77;;;1.65;;
25938;SDS011;13739;51.172;4.466;2023-03-23T13:31:20;7.55;;;1.27;;
25938;SDS011;13739;51.172;4.466;2023-03-23T13:34:20;11.27;;;1.80;;
25938;SDS011;13739;51.172;4.466;2023-03-23T13:36:58;8.73;;;2.13;;
25938;SDS011;13739;51.172;4.466;2023-03-23T13:49:53;6.03;;;1.45;;
25938;SDS011;13739;51.172;4.466;2023-03-23T14:08:24;9.43;;;1.70;;
25938;SDS011;13739;51.172;4.466;2023-03-23T14:11:00;8.43;;;1.90;;
25938;SDS011;13739;51.172;4.466;2023-03-23T14:16:02;5.70;;;1.77;;
25938;SDS011;13739;51.172;4.466;2023-03-23T14:18:38;2.75;;;1.13;;
25938;SDS011;13739;51.172;4.466;2023-03-23T14:21:06;6.93;;;1.50;;
25938;SDS011;13739;51.172;4.466;2023-03-23T14:23:47;7.38;;;1.40;;
25938;SDS011;13739;51.172;4.466;2023-03-23T14:26:19;5.60;;;1.40;;
25938;SDS011;13739;51.172;4.466;2023-03-23T14:28:49;5.35;;;1.50;;
25938;SDS011;13739;51.172;4.466;2023-03-23T14:33:41;6.00;;;1.50;;
25938;SDS011;13739;51.172;4.466;2023-03-23T14:36:07;5.18;;;1.65;;
25938;SDS011;13739;51.172;4.466;2023-03-23T14:38:33;4.15;;;1.45;;
25938;SDS011;13739;51.172;4.466;2023-03-23T14:41:00;5.47;;;1.40;;
25938;SDS011;13739;51.172;4.466;2023-03-23T14:43:27;6.22;;;1.70;;
25938;SDS011;13739;51.172;4.466;2023-03-23T14:45:55;8.65;;;1.85;;
25938;SDS011;13739;51.172;4.466;2023-03-23T14:48:23;7.75;;;1.48;;
25938;SDS011;13739;51.172;4.466;2023-03-23T14:50:51;10.15;;;1.52;;
25938;SDS011;13739;51.172;4.466;2023-03-23T14:53:28;8.43;;;1.88;;
25938;SDS011;13739;51.172;4.466;2023-03-23T14:56:14;9.43;;;2.03;;
25938;SDS011;13739;51.172;4.466;2023-03-23T14:58:48;10.85;;;1.88;;
25938;SDS011;13739;51.172;4.466;2023-03-23T15:03:53;10.70;;;1.92;;
25938;SDS011;13739;51.172;4.466;2023-03-23T15:06:27;6.43;;;1.85;;
25938;SDS011;13739;51.172;4.466;2023-03-23T15:08:56;9.60;;;1.95;;
25938;SDS011;13739;51.172;4.466;2023-03-23T15:13:58;7.15;;;1.88;;
25938;SDS011;13739;51.172;4.466;2023-03-23T15:16:32;9.40;;;2.03;;
25938;SDS011;13739;51.172;4.466;2023-03-23T15:21:33;8.20;;;2.47;;
25938;SDS011;13739;51.172;4.466;2023-03-23T15:24:01;10.23;;;2.33;;
25938;SDS011;13739;51.172;4.466;2023-03-23T15:26:43;8.15;;;2.15;;
25938;SDS011;13739;51.172;4.466;2023-03-23T15:31:45;6.80;;;2.28;;
25938;SDS011;13739;51.172;4.466;2023-03-23T15:34:17;8.00;;;1.88;;
25938;SDS011;13739;51.172;4.466;2023-03-23T15:36:45;8.38;;;1.90;;
25938;SDS011;13739;51.172;4.466;2023-03-23T15:39:11;3.85;;;1.63;;
25938;SDS011;13739;51.172;4.466;2023-03-23T15:41:45;8.70;;;1.75;;
25938;SDS011;13739;51.172;4.466;2023-03-23T15:44:19;12.02;;;2.58;;
25938;SDS011;13739;51.172;4.466;2023-03-23T15:46:51;10.60;;;2.13;;
25938;SDS011;13739;51.172;4.466;2023-03-23T15:49:18;8.55;;;2.28;;
25938;SDS011;13739;51.172;4.466;2023-03-23T15:51:50;9.70;;;1.95;;
25938;SDS011;13739;51.172;4.466;2023-03-23T15:54:16;5.82;;;2.08;;
25938;SDS011;13739;51.172;4.466;2023-03-23T15:56:42;7.35;;;2.38;;
25938;SDS011;13739;51.172;4.466;2023-03-23T15:59:08;9.88;;;2.40;;
25938;SDS011;13739;51.172;4.466;2023-03-23T16:01:36;10.00;;;2.28;;
25938;SDS011;13739;51.172;4.466;2023-03-23T16:04:05;9.45;;;2.17;;
25938;SDS011;13739;51.172;4.466;2023-03-23T16:13:57;8.38;;;2.30;;
25938;SDS011;13739;51.172;4.466;2023-03-23T16:16:26;7.28;;;1.75;;
25938;SDS011;13739;51.172;4.466;2023-03-23T16:18:55;9.20;;;2.22;;
25938;SDS011;13739;51.172;4.466;2023-03-23T16:21:20;8.43;;;1.75;;
25938;SDS011;13739;51.172;4.466;2023-03-23T16:23:47;8.90;;;2.22;;
25938;SDS011;13739;51.172;4.466;2023-03-23T16:26:13;9.40;;;2.08;;
25938;SDS011;13739;51.172;4.466;2023-03-23T16:28:39;9.38;;;2.05;;
25938;SDS011;13739;51.172;4.466;2023-03-23T16:31:06;9.82;;;2.17;;
25938;SDS011;13739;51.172;4.466;2023-03-23T16:33:32;14.18;;;2.65;;
25938;SDS011;13739;51.172;4.466;2023-03-23T16:35:57;10.90;;;2.25;;
25938;SDS011;13739;51.172;4.466;2023-03-23T16:38:23;9.23;;;2.00;;
25938;SDS011;13739;51.172;4.466;2023-03-23T16:40:49;8.70;;;2.42;;
25938;SDS011;13739;51.172;4.466;2023-03-23T16:43:15;9.65;;;2.35;;
25938;SDS011;13739;51.172;4.466;2023-03-23T16:45:42;15.45;;;2.85;;
25938;SDS011;13739;51.172;4.466;2023-03-23T16:48:10;8.85;;;2.33;;
25938;SDS011;13739;51.172;4.466;2023-03-23T16:50:37;12.45;;;2.58;;
25938;SDS011;13739;51.172;4.466;2023-03-23T16:53:04;13.27;;;2.40;;
25938;SDS011;13739;51.172;4.466;2023-03-23T16:55:31;9.90;;;2.63;;
25938;SDS011;13739;51.172;4.466;2023-03-23T16:57:57;11.10;;;2.40;;
25938;SDS011;13739;51.172;4.466;2023-03-23T17:00:23;9.07;;;2.35;;
25938;SDS011;13739;51.172;4.466;2023-03-23T17:02:51;11.95;;;2.65;;
25938;SDS011;13739;51.172;4.466;2023-03-23T17:05:20;9.00;;;2.13;;
25938;SDS011;13739;51.172;4.466;2023-03-23T17:07:51;7.07;;;2.05;;
25938;SDS011;13739;51.172;4.466;2023-03-23T17:10:19;8.98;;;2.15;;
25938;SDS011;13739;51.172;4.466;2023-03-23T17:12:45;8.00;;;1.75;;
25938;SDS011;13739;51.172;4.466;2023-03-23T17:15:11;12.10;;;1.95;;
25938;SDS011;13739;51.172;4.466;2023-03-23T17:17:37;10.13;;;2.70;;
25938;SDS011;13739;51.172;4.466;2023-03-23T17:20:03;9.63;;;2.00;;
25938;SDS011;13739;51.172;4.466;2023-03-23T17:22:30;6.35;;;2.00;;
25938;SDS011;13739;51.172;4.466;2023-03-23T17:24:56;7.85;;;2.55;;
25938;SDS011;13739;51.172;4.466;2023-03-23T17:27:22;6.25;;;1.60;;
25938;SDS011;13739;51.172;4.466;2023-03-23T17:29:50;8.88;;;1.50;;
25938;SDS011;13739;51.172;4.466;2023-03-23T17:32:16;10.23;;;1.83;;
25938;SDS011;13739;51.172;4.466;2023-03-23T17:34:42;9.50;;;2.17;;
25938;SDS011;13739;51.172;4.466;2023-03-23T17:37:08;7.63;;;1.58;;
25938;SDS011;13739;51.172;4.466;2023-03-23T17:39:34;12.00;;;2.03;;
25938;SDS011;13739;51.172;4.466;2023-03-23T17:42:01;7.00;;;2.33;;
25938;SDS011;13739;51.172;4.466;2023-03-23T17:44:28;9.55;;;2.97;;
25938;SDS011;13739;51.172;4.466;2023-03-23T17:46:53;8.45;;;2.80;;
25938;SDS011;13739;51.172;4.466;2023-03-23T17:49:22;12.07;;;3.20;;
25938;SDS011;13739;51.172;4.466;2023-03-23T17:51:48;16.80;;;4.53;;
25938;SDS011;13739;51.172;4.466;2023-03-23T17:54:14;16.73;;;4.30;;
25938;SDS011;13739;51.172;4.466;2023-03-23T17:56:40;12.65;;;3.35;;
25938;SDS011;13739;51.172;4.466;2023-03-23T17:59:05;17.73;;;3.20;;
25938;SDS011;13739;51.172;4.466;2023-03-23T18:01:32;14.70;;;3.00;;
25938;SDS011;13739;51.172;4.466;2023-03-23T18:03:58;19.42;;;4.28;;
25938;SDS011;13739;51.172;4.466;2023-03-23T18:06:24;12.57;;;3.45;;